Time;durP1;ratioP1;P1;durP2;ratioP2;P2;SDS_P1;SDS_P2;PMS_P1;PMS_P2;Temp;Humidity;BMP_temperature;BMP_pressure;BME280_temperature;BME280_humidity;BME280_pressure;Samples;Min_cycle;Max_cycle;Signal;HPM_P1;HPM_P2
2024/01/16 00:01:03;;;;;;;;;91.50;71.25;;;;;-0.58;100.00;101268.13;5061514;28;45233;-72
2024/01/16 00:03:29;;;;;;;;;87.50;69.50;;;;;-0.84;100.00;101216.06;5061957;28;45307;-72
2024/01/16 00:05:54;;;;;;;;;91.00;71.50;;;;;-0.59;100.00;101259.47;5060406;28;45882;-73
2024/01/16 00:08:19;;;;;;;;;91.75;72.00;;;;;-0.83;100.00;101219.53;5061443;28;46256;-72
2024/01/16 00:10:45;;;;;;;;;92.00;70.75;;;;;-0.66;100.00;101247.34;5041438;28;45254;-71
2024/01/16 00:13:10;;;;;;;;;84.75;65.50;;;;;-0.65;100.00;101246.47;5043837;28;46291;-72
2024/01/16 00:15:35;;;;;;;;;87.00;66.75;;;;;-0.61;100.00;101250.81;5061009;28;45249;-72
2024/01/16 00:18:01;;;;;;;;;93.50;67.75;;;;;-0.63;100.00;101252.56;5059478;28;46413;-71
2024/01/16 00:20:26;;;;;;;;;96.50;69.50;;;;;-0.65;100.00;101241.25;5060684;28;45348;-71
2024/01/16 00:22:52;;;;;;;;;86.75;63.75;;;;;-0.64;100.00;101258.59;5060619;28;45417;-71
2024/01/16 00:25:19;;;;;;;;;85.50;67.25;;;;;-0.77;100.00;101227.34;5060900;28;45432;-70
2024/01/16 00:27:45;;;;;;;;;91.00;70.25;;;;;-0.70;100.00;101248.19;5058754;28;46401;-70
2024/01/16 00:30:11;;;;;;;;;88.75;69.75;;;;;-0.78;100.00;101244.66;5061573;28;45419;-70
2024/01/16 00:32:36;;;;;;;;;94.75;72.25;;;;;-0.97;100.00;101203.88;5059179;28;45521;-70
2024/01/16 00:35:02;;;;;;;;;92.75;72.75;;;;;-0.76;100.00;101249.88;5061557;28;45440;-70
2024/01/16 00:37:28;;;;;;;;;96.50;70.00;;;;;-0.78;100.00;101243.78;5058479;28;46179;-70
2024/01/16 00:39:53;;;;;;;;;100.25;75.00;;;;;-0.79;100.00;101239.47;5043429;28;45862;-70
2024/01/16 00:42:18;;;;;;;;;96.00;69.75;;;;;-0.84;100.00;101225.56;5048642;28;45358;-72
2024/01/16 00:44:44;;;;;;;;;88.00;67.75;;;;;-0.85;100.00;101237.69;5060865;28;45227;-71
2024/01/16 00:47:09;;;;;;;;;89.50;70.00;;;;;-0.83;100.00;101248.97;5060481;28;45452;-70
2024/01/16 00:49:35;;;;;;;;;92.25;71.50;;;;;-0.90;100.00;101239.41;5060462;28;45213;-71
2024/01/16 00:52:01;;;;;;;;;88.50;68.50;;;;;-0.86;100.00;101230.78;5060112;28;45238;-70
2024/01/16 00:54:26;;;;;;;;;97.25;73.00;;;;;-0.88;100.00;101227.28;5049171;28;45631;-70
2024/01/16 00:56:55;;;;;;;;;93.50;70.50;;;;;-0.83;100.00;101237.69;5059525;28;45288;-71
2024/01/16 00:59:20;;;;;;;;;91.25;70.25;;;;;-0.91;100.00;101232.47;5060624;28;45299;-70
2024/01/16 01:01:46;;;;;;;;;87.75;65.75;;;;;-0.88;100.00;101231.63;5041764;28;45288;-70
2024/01/16 01:04:11;;;;;;;;;83.50;61.25;;;;;-0.95;100.00;101211.69;5060774;28;45402;-70
2024/01/16 01:06:36;;;;;;;;;86.00;65.00;;;;;-0.87;100.00;101229.03;5055330;28;45260;-70
2024/01/16 01:09:02;;;;;;;;;80.50;62.50;;;;;-1.40;100.00;101148.25;5052991;28;45330;-70
2024/01/16 01:11:28;;;;;;;;;80.75;65.50;;;;;-1.41;100.00;101150.84;5053199;28;45465;-71
2024/01/16 01:13:53;;;;;;;;;83.25;63.75;;;;;-0.90;100.00;101235.94;5053849;28;45414;-70
2024/01/16 01:16:19;;;;;;;;;80.50;62.75;;;;;-1.01;100.00;101212.50;5051071;28;46376;-70
2024/01/16 01:18:44;;;;;;;;;80.25;62.75;;;;;-0.99;100.00;101215.13;5054899;28;45239;-70
2024/01/16 01:21:09;;;;;;;;;75.50;60.50;;;;;-0.93;100.00;101225.53;5055479;28;45335;-70
2024/01/16 01:23:35;;;;;;;;;76.00;58.50;;;;;-0.97;100.00;101208.19;5054618;28;45422;-70
2024/01/16 01:26:00;;;;;;;;;85.00;63.75;;;;;-0.95;100.00;101222.94;5056773;28;45566;-70
2024/01/16 01:28:26;;;;;;;;;76.25;62.00;;;;;-1.05;100.00;101214.19;5054940;28;45258;-71
2024/01/16 01:30:51;;;;;;;;;78.25;58.25;;;;;-0.97;100.00;101224.63;5058874;28;45351;-71
2024/01/16 01:33:17;;;;;;;;;77.75;62.00;;;;;-1.01;100.00;101224.63;5060328;28;45422;-71
2024/01/16 01:35:42;;;;;;;;;79.25;62.00;;;;;-0.97;100.00;101234.16;5060372;28;45442;-71
2024/01/16 01:38:08;;;;;;;;;75.50;58.75;;;;;-1.05;100.00;101231.53;5053228;28;45474;-71
2024/01/16 01:40:33;;;;;;;;;74.25;61.25;;;;;-1.05;100.00;101240.16;5060707;28;45417;-71
2024/01/16 01:43:16;;;;;;;;;73.25;59.00;;;;;-1.01;100.00;101241.03;5059095;28;45486;-70
2024/01/16 01:45:42;;;;;;;;;71.25;55.00;;;;;-0.97;100.00;101254.91;5051282;28;46475;-71
2024/01/16 01:48:09;;;;;;;;;73.50;58.75;;;;;-1.02;100.00;101260.09;5045874;28;45398;-70
2024/01/16 01:50:35;;;;;;;;;75.00;56.50;;;;;-1.03;100.00;101263.53;5047408;28;45388;-71
2024/01/16 01:53:00;;;;;;;;;68.75;53.75;;;;;-1.06;100.00;101271.31;5046240;28;45375;-71
2024/01/16 01:55:26;;;;;;;;;64.75;53.75;;;;;-1.08;100.00;101265.25;5055920;28;45607;-71
2024/01/16 01:57:52;;;;;;;;;75.75;61.25;;;;;-1.08;100.00;101266.09;5053946;28;45339;-71
2024/01/16 02:00:18;;;;;;;;;70.50;56.75;;;;;-1.05;100.00;101260.06;5047685;28;45245;-71
2024/01/16 02:02:45;;;;;;;;;70.75;57.50;;;;;-1.12;100.00;101247.91;5050617;28;45302;-71
2024/01/16 02:05:10;;;;;;;;;79.25;60.75;;;;;-1.12;100.00;101247.91;5046942;28;46481;-71
2024/01/16 02:07:36;;;;;;;;;71.50;57.00;;;;;-1.11;100.00;101250.50;5032600;28;45161;-71
2024/01/16 02:10:02;;;;;;;;;70.25;55.25;;;;;-1.33;100.00;101217.47;5044757;28;45361;-71
2024/01/16 02:12:28;;;;;;;;;66.25;55.50;;;;;-1.20;100.00;101241.78;5059839;28;45362;-71
2024/01/16 02:14:53;;;;;;;;;71.00;57.50;;;;;-1.15;100.00;101240.97;5058554;28;45582;-71
2024/01/16 02:17:18;;;;;;;;;49.75;41.25;;;;;-1.19;100.00;101239.19;5052197;28;47409;-71
2024/01/16 02:19:44;;;;;;;;;71.50;55.00;;;;;-1.20;100.00;101240.06;5056896;28;45263;-71
2024/01/16 02:22:15;;;;;;;;;71.25;57.00;;;;;-1.71;100.00;101164.44;5059271;28;45378;-71
2024/01/16 02:24:41;;;;;;;;;69.00;55.50;;;;;-1.20;100.00;101236.59;5054969;28;45489;-72
2024/01/16 02:27:07;;;;;;;;;67.00;50.25;;;;;-1.15;100.00;101240.09;5040633;28;45313;-71
2024/01/16 02:29:32;;;;;;;;;67.25;53.00;;;;;-1.17;100.00;101231.41;5057207;28;45480;-72
2024/01/16 02:31:57;;;;;;;;;76.25;60.25;;;;;-1.16;100.00;101233.16;5060008;28;45483;-73
2024/01/16 02:34:23;;;;;;;;;69.75;53.50;;;;;-1.24;100.00;101227.03;5059293;28;46209;-72
2024/01/16 02:36:48;;;;;;;;;76.25;56.00;;;;;-1.28;100.00;101217.50;5055168;28;45330;-72
2024/01/16 02:39:14;;;;;;;;;69.25;56.00;;;;;-1.41;100.00;101188.03;5054451;28;45430;-73
2024/01/16 02:41:40;;;;;;;;;67.25;56.75;;;;;-1.23;100.00;101221.00;5057288;28;45272;-72
2024/01/16 02:44:05;;;;;;;;;60.25;50.75;;;;;-1.24;100.00;101222.72;5054431;28;45304;-72
2024/01/16 02:46:32;;;;;;;;;65.75;51.25;;;;;-1.23;100.00;101215.81;5055006;28;45330;-72
2024/01/16 02:48:57;;;;;;;;;65.75;54.50;;;;;-1.21;100.00;101219.31;5050840;28;45213;-72
2024/01/16 02:51:23;;;;;;;;;69.00;52.00;;;;;-1.27;100.00;101207.13;5057648;28;45378;-72
2024/01/16 02:53:48;;;;;;;;;63.75;52.50;;;;;-1.26;100.00;101208.88;5032412;28;48128;-73
2024/01/16 02:56:14;;;;;;;;;69.25;55.00;;;;;-1.45;100.00;101181.06;5066586;28;45401;-72
2024/01/16 02:58:40;;;;;;;;;66.00;51.75;;;;;-1.31;100.00;101194.16;5061077;28;45413;-72
2024/01/16 03:01:05;;;;;;;;;69.50;55.50;;;;;-1.27;100.00;101194.16;5059467;28;45315;-72
2024/01/16 03:03:31;;;;;;;;;68.25;55.25;;;;;-1.26;100.00;101192.44;5050739;28;45267;-73
2024/01/16 03:05:56;;;;;;;;;67.25;50.00;;;;;-1.33;100.00;101198.44;5044878;28;45527;-73
2024/01/16 03:08:22;;;;;;;;;62.50;49.00;;;;;-1.30;100.00;101204.50;5062644;28;45232;-73
2024/01/16 03:10:47;;;;;;;;;69.25;54.50;;;;;-1.42;100.00;101180.22;5053322;28;45296;-73
2024/01/16 03:13:13;;;;;;;;;70.00;54.75;;;;;-1.56;100.00;101149.00;5058270;28;45395;-72
2024/01/16 03:15:38;;;;;;;;;65.50;53.00;;;;;-1.37;100.00;101175.91;5062932;28;45447;-72
2024/01/16 03:18:04;;;;;;;;;61.25;50.50;;;;;-1.52;100.00;101149.88;5051951;28;45270;-73
2024/01/16 03:20:29;;;;;;;;;77.25;57.75;;;;;-1.40;100.00;101184.56;5062662;28;45408;-72
2024/01/16 03:22:55;;;;;;;;;68.50;54.25;;;;;-1.45;100.00;101167.22;5065105;28;46513;-72
2024/01/16 03:25:21;;;;;;;;;73.50;54.25;;;;;-1.37;100.00;101186.28;5063365;28;45339;-72
2024/01/16 03:27:47;;;;;;;;;69.25;54.50;;;;;-1.34;100.00;101188.94;5040414;28;45325;-72
2024/01/16 03:30:12;;;;;;;;;74.25;52.75;;;;;-1.65;100.00;101142.03;5062428;28;45386;-73
2024/01/16 03:32:38;;;;;;;;;66.50;55.00;;;;;-1.36;100.00;101191.50;5062217;28;45642;-72
2024/01/16 03:35:06;;;;;;;;;67.75;52.75;;;;;-1.37;100.00;101192.34;5059445;28;45247;-73
2024/01/16 03:37:31;;;;;;;;;71.25;56.25;;;;;-1.40;100.00;101199.25;5055827;28;45356;-72
2024/01/16 03:39:57;;;;;;;;;69.75;53.50;;;;;-1.43;100.00;101194.03;5058834;28;45543;-72
2024/01/16 03:42:23;;;;;;;;;77.25;54.50;;;;;-1.44;100.00;101194.91;5054227;28;45385;-73
2024/01/16 03:44:49;;;;;;;;;73.00;58.00;;;;;-1.43;100.00;101187.13;5058510;28;45239;-72
2024/01/16 03:47:14;;;;;;;;;63.25;50.75;;;;;-1.44;100.00;101194.91;5056111;28;45418;-73
2024/01/16 03:49:40;;;;;;;;;69.00;53.33;;;;;-1.71;100.00;101157.53;5053856;28;45383;-73
2024/01/16 03:52:05;;;;;;;;;72.00;56.75;;;;;-1.44;100.00;101192.31;5061987;28;45298;-73
2024/01/16 03:54:31;;;;;;;;;63.50;50.25;;;;;-1.58;100.00;101167.16;5058435;28;45396;-73
2024/01/16 03:56:56;;;;;;;;;72.25;55.00;;;;;-1.57;100.00;101173.16;5049155;28;45250;-73
2024/01/16 03:59:22;;;;;;;;;65.50;54.25;;;;;-1.55;100.00;101166.28;5056495;28;45297;-72
2024/01/16 04:01:48;;;;;;;;;76.50;59.50;;;;;-1.47;100.00;101200.91;5053158;28;46163;-73
2024/01/16 04:04:14;;;;;;;;;68.25;51.75;;;;;-1.53;100.00;101166.28;5061617;28;45303;-72
2024/01/16 04:06:40;;;;;;;;;70.00;54.25;;;;;-1.48;100.00;101181.06;5061130;28;45378;-73
2024/01/16 04:09:05;;;;;;;;;71.50;55.50;;;;;-1.75;100.00;101139.34;5061648;28;45462;-73
2024/01/16 04:11:30;;;;;;;;;71.00;54.25;;;;;-1.46;100.00;101179.31;5059317;28;45307;-73
2024/01/16 04:13:56;;;;;;;;;66.00;53.75;;;;;-1.62;100.00;101154.13;5041512;28;45320;-73
2024/01/16 04:16:21;;;;;;;;;65.50;51.75;;;;;-1.55;100.00;101176.66;5059776;28;45520;-73
2024/01/16 04:18:47;;;;;;;;;66.75;51.00;;;;;-1.50;100.00;101184.47;5060926;28;45358;-73
2024/01/16 04:21:12;;;;;;;;;73.75;55.50;;;;;-1.54;100.00;101170.63;5059141;28;45418;-73
2024/01/16 04:23:38;;;;;;;;;72.00;55.75;;;;;-1.57;100.00;101155.03;5050637;28;45270;-73
2024/01/16 04:26:03;;;;;;;;;72.75;54.75;;;;;-1.53;100.00;101161.09;5061501;28;45756;-73
2024/01/16 04:28:29;;;;;;;;;74.50;56.50;;;;;-1.55;100.00;101155.03;5060525;28;45270;-72
2024/01/16 04:30:54;;;;;;;;;59.00;49.75;;;;;-1.74;100.00;101131.59;5061190;28;45419;-73
2024/01/16 04:33:20;;;;;;;;;72.50;57.00;;;;;-1.55;100.00;101155.03;5061402;28;45283;-73
2024/01/16 04:35:45;;;;;;;;;76.75;55.25;;;;;-1.80;100.00;101103.00;5060797;28;45538;-72
2024/01/16 04:38:10;;;;;;;;;73.50;56.00;;;;;-1.57;100.00;101148.13;5061545;28;45347;-73
2024/01/16 04:40:36;;;;;;;;;71.00;53.25;;;;;-1.79;100.00;101112.53;5061505;28;45585;-72
2024/01/16 04:43:02;;;;;;;;;65.50;52.50;;;;;-1.54;100.00;101159.38;5059173;28;45326;-73
2024/01/16 04:45:28;;;;;;;;;70.50;54.50;;;;;-1.62;100.00;101149.81;5059043;28;45244;-72
2024/01/16 04:47:53;;;;;;;;;68.75;55.75;;;;;-1.60;100.00;101147.22;5050425;28;45244;-73
2024/01/16 04:50:18;;;;;;;;;67.50;52.75;;;;;-1.93;100.00;101098.56;5060417;28;45284;-73
2024/01/16 04:52:44;;;;;;;;;68.00;53.75;;;;;-1.66;100.00;101137.69;5036277;28;45193;-73
2024/01/16 04:55:09;;;;;;;;;59.75;51.50;;;;;-1.86;100.00;101105.53;5055033;28;45465;-73
2024/01/16 04:57:34;;;;;;;;;68.25;54.25;;;;;-1.66;100.00;101123.84;5061072;28;45375;-72
2024/01/16 05:00:00;;;;;;;;;66.75;51.25;;;;;-1.65;100.00;101134.25;5059816;28;45398;-73
2024/01/16 05:02:25;;;;;;;;;64.25;53.75;;;;;-1.61;100.00;101124.75;5061073;28;45222;-73
2024/01/16 05:04:51;;;;;;;;;68.00;56.00;;;;;-1.68;100.00;101116.06;5060412;28;45240;-68
2024/01/16 05:07:19;;;;;;;;;65.75;52.00;;;;;-1.63;100.00;101114.38;5041836;28;45216;-68
2024/01/16 05:09:45;;;;;;;;;73.25;55.50;;;;;-1.62;100.00;101117.84;5055109;28;47459;-68
2024/01/16 05:12:10;;;;;;;;;73.00;53.75;;;;;-1.69;100.00;101108.28;5061096;28;45335;-68
2024/01/16 05:14:36;;;;;;;;;74.00;56.00;;;;;-1.73;100.00;101102.19;5040968;28;45348;-69
2024/01/16 05:17:01;;;;;;;;;70.75;52.50;;;;;-1.72;100.00;101098.75;5055553;28;45279;-68
2024/01/16 05:19:26;;;;;;;;;73.25;55.75;;;;;-1.68;100.00;101107.41;5053159;28;46515;-68
2024/01/16 05:21:52;;;;;;;;;66.50;55.75;;;;;-1.68;100.00;101110.88;5053385;28;45212;-68
2024/01/16 05:24:17;;;;;;;;;68.75;52.75;;;;;-1.76;100.00;101094.38;5060716;28;45513;-68
2024/01/16 05:26:43;;;;;;;;;67.00;52.50;;;;;-1.72;100.00;101106.53;5060739;28;45244;-68
2024/01/16 05:29:09;;;;;;;;;66.50;53.00;;;;;-1.76;100.00;101096.97;5054220;28;46075;-68
2024/01/16 05:31:39;;;;;;;;;68.25;56.25;;;;;-1.78;100.00;101103.03;5052370;28;45213;-69
2024/01/16 05:34:05;;;;;;;;;70.25;55.50;;;;;-1.84;100.00;101088.31;5056343;28;45335;-69
2024/01/16 05:36:30;;;;;;;;;77.25;54.75;;;;;-1.80;100.00;101091.78;5060678;28;45225;-69
2024/01/16 05:38:55;;;;;;;;;71.50;55.00;;;;;-1.80;100.00;101091.78;5052804;28;45469;-69
2024/01/16 05:41:21;;;;;;;;;73.00;54.00;;;;;-1.99;100.00;101071.75;5060258;28;45320;-69
2024/01/16 05:43:46;;;;;;;;;71.75;54.00;;;;;-2.01;100.00;101063.97;5059122;28;45261;-69
2024/01/16 05:46:12;;;;;;;;;66.50;54.00;;;;;-1.80;100.00;101094.38;5052412;28;45464;-69
2024/01/16 05:48:38;;;;;;;;;67.00;53.75;;;;;-2.05;100.00;101054.44;5060320;28;45501;-69
2024/01/16 05:51:04;;;;;;;;;73.75;56.50;;;;;-1.75;100.00;101092.69;5052096;28;45335;-69
2024/01/16 05:53:30;;;;;;;;;83.75;57.00;;;;;-1.77;100.00;101090.09;5056350;28;45362;-69
2024/01/16 05:55:55;;;;;;;;;64.50;52.75;;;;;-1.82;100.00;101071.03;5049516;28;45341;-69
2024/01/16 05:58:21;;;;;;;;;61.75;53.00;;;;;-1.82;100.00;101085.69;5058525;28;46254;-68
2024/01/16 06:00:46;;;;;;;;;73.50;56.25;;;;;-1.82;100.00;101080.53;5042036;28;45280;-68
2024/01/16 06:03:12;;;;;;;;;72.50;55.75;;;;;-1.89;100.00;101064.06;5054087;28;45241;-68
2024/01/16 06:05:37;;;;;;;;;71.25;56.00;;;;;-1.87;100.00;101067.53;5035974;28;45676;-68
2024/01/16 06:08:03;;;;;;;;;71.00;56.50;;;;;-1.79;100.00;101081.41;5052492;28;45963;-68
2024/01/16 06:10:28;;;;;;;;;72.25;52.25;;;;;-1.84;100.00;101071.88;5046188;28;45366;-68
2024/01/16 06:12:53;;;;;;;;;70.50;54.00;;;;;-1.82;100.00;101057.19;5052863;28;45279;-68
2024/01/16 06:15:19;;;;;;;;;69.75;56.25;;;;;-1.88;100.00;101065.81;5058769;28;45557;-68
2024/01/16 06:17:44;;;;;;;;;61.00;50.50;;;;;-1.87;100.00;101071.84;5035669;28;50653;-68
2024/01/16 06:20:10;;;;;;;;;67.00;55.25;;;;;-1.88;100.00;101070.09;5059241;28;45413;-67
2024/01/16 06:22:35;;;;;;;;;68.00;52.25;;;;;-1.86;100.00;101079.63;5053474;28;45398;-68
2024/01/16 06:25:02;;;;;;;;;72.50;53.50;;;;;-1.96;100.00;101070.03;5053419;28;45297;-68
2024/01/16 06:27:27;;;;;;;;;80.75;61.75;;;;;-2.11;100.00;101057.84;5031518;28;46667;-68
2024/01/16 06:29:53;;;;;;;;;72.00;57.00;;;;;-1.89;100.00;101089.09;5054036;28;45547;-68
2024/01/16 06:32:18;;;;;;;;;70.75;56.25;;;;;-1.90;100.00;101090.84;5059776;28;45192;-68
2024/01/16 06:34:43;;;;;;;;;34.50;27.25;;;;;-2.09;100.00;101063.03;5043335;28;45244;-68
2024/01/16 06:37:09;;;;;;;;;74.25;56.75;;;;;-1.95;100.00;101076.97;5057552;28;46725;-68
2024/01/16 06:39:35;;;;;;;;;51.75;45.50;;;;;-2.01;100.00;101066.56;5042555;28;45321;-69
2024/01/16 06:42:01;;;;;;;;;74.75;57.25;;;;;-2.14;100.00;101044.88;5058881;28;45480;-68
2024/01/16 06:44:26;;;;;;;;;71.25;56.25;;;;;-1.98;100.00;101081.25;5046342;28;45431;-69
2024/01/16 06:46:51;;;;;;;;;73.75;59.75;;;;;-1.96;100.00;101090.78;5058864;28;45305;-68
2024/01/16 06:49:17;;;;;;;;;62.50;52.50;;;;;-2.27;100.00;101044.75;5053925;28;45255;-68
2024/01/16 06:51:42;;;;;;;;;63.75;52.50;;;;;-2.30;100.00;101039.56;5051026;28;45417;-68
2024/01/16 06:54:07;;;;;;;;;70.50;56.25;;;;;-2.02;100.00;101080.38;5058340;28;45513;-68
2024/01/16 06:56:33;;;;;;;;;72.50;53.75;;;;;-2.01;100.00;101083.81;5023736;28;46712;-68
2024/01/16 06:58:58;;;;;;;;;72.25;58.50;;;;;-2.18;100.00;101078.50;5058117;28;45413;-68
2024/01/16 07:01:23;;;;;;;;;72.50;58.50;;;;;-2.01;100.00;101092.47;5059189;28;45356;-69
2024/01/16 07:03:49;;;;;;;;;69.75;58.50;;;;;-1.99;100.00;101101.13;5041288;28;45657;-69
2024/01/16 07:06:14;;;;;;;;;68.25;52.00;;;;;-2.02;100.00;101093.31;5057393;28;45260;-69
2024/01/16 07:08:40;;;;;;;;;62.50;50.50;;;;;-2.01;100.00;101105.44;5053973;28;45315;-68
2024/01/16 07:11:08;;;;;;;;;26.50;18.00;;;;;-2.02;100.00;101098.50;5049329;28;45435;-68
2024/01/16 07:13:34;;;;;;;;;67.25;54.25;;;;;-2.07;100.00;101089.84;5057890;28;45224;-69
2024/01/16 07:15:59;;;;;;;;;74.75;58.75;;;;;-2.02;100.00;101103.69;5058664;28;45582;-69
2024/01/16 07:18:26;;;;;;;;;72.75;57.75;;;;;-1.99;100.00;101084.69;5054594;28;45295;-69
2024/01/16 07:20:52;;;;;;;;;65.25;55.75;;;;;-2.03;100.00;101081.25;5044416;28;45309;-69
2024/01/16 07:23:17;;;;;;;;;65.75;56.25;;;;;-2.00;100.00;101077.81;5056549;28;45347;-69
2024/01/16 07:25:42;;;;;;;;;75.50;56.50;;;;;-1.96;100.00;101093.38;5056036;28;45364;-69
2024/01/16 07:28:08;;;;;;;;;67.25;55.00;;;;;-2.01;100.00;101079.53;5055969;28;45667;-69
2024/01/16 07:30:34;;;;;;;;;70.00;57.00;;;;;-2.07;100.00;101074.28;5058717;28;45433;-69
2024/01/16 07:32:59;;;;;;;;;75.00;56.00;;;;;-1.93;100.00;101100.31;5058114;28;45778;-69
2024/01/16 07:35:24;;;;;;;;;81.50;63.50;;;;;-1.93;100.00;101100.31;5058353;28;46205;-69
2024/01/16 07:37:50;;;;;;;;;72.25;57.50;;;;;-2.11;100.00;101075.13;5058577;28;45275;-69
2024/01/16 07:40:16;;;;;;;;;77.75;59.25;;;;;-2.09;100.00;101065.63;5048866;28;45999;-69
2024/01/16 07:42:42;;;;;;;;;70.50;54.75;;;;;-1.87;100.00;101082.22;5054727;28;45320;-69
2024/01/16 07:45:08;;;;;;;;;74.25;61.00;;;;;-1.88;100.00;101091.72;5055699;28;46186;-69
2024/01/16 07:47:33;;;;;;;;;73.25;59.75;;;;;-1.90;100.00;101079.63;5071268;28;45409;-69
2024/01/16 07:50:00;;;;;;;;;72.00;56.75;;;;;-1.90;100.00;101077.91;5059608;28;45308;-69
2024/01/16 07:52:27;;;;;;;;;67.75;54.00;;;;;-2.12;100.00;101061.28;5054366;28;45625;-69
2024/01/16 07:54:52;;;;;;;;;73.25;58.50;;;;;-1.91;100.00;101093.41;5044801;28;45533;-69
2024/01/16 07:57:17;;;;;;;;;78.25;60.75;;;;;-1.88;100.00;101090.84;5046017;28;45296;-69
2024/01/16 07:59:42;;;;;;;;;76.25;56.25;;;;;-1.95;100.00;101087.34;5049104;28;45174;-67
2024/01/16 08:02:08;;;;;;;;;75.75;57.25;;;;;-1.84;100.00;101097.78;5051855;28;45248;-67
2024/01/16 08:04:34;;;;;;;;;63.50;51.75;;;;;-1.81;100.00;101093.50;5040314;28;48258;-67
2024/01/16 08:07:00;;;;;;;;;73.50;58.50;;;;;-1.84;100.00;101080.53;5042648;28;45389;-67
2024/01/16 08:09:25;;;;;;;;;70.75;57.00;;;;;-1.82;100.00;101081.38;5051540;28;45343;-68
2024/01/16 08:11:51;;;;;;;;;70.50;55.75;;;;;-1.72;100.00;101111.72;5042563;28;45534;-67
2024/01/16 08:14:16;;;;;;;;;74.00;57.25;;;;;-1.75;100.00;101093.53;5057945;28;46378;-67
2024/01/16 08:16:42;;;;;;;;;66.50;52.00;;;;;-1.87;100.00;101080.50;5060478;28;45325;-68
2024/01/16 08:19:07;;;;;;;;;60.00;49.50;;;;;-1.96;100.00;101059.69;5060716;28;45442;-67
2024/01/16 08:21:33;;;;;;;;;69.25;55.25;;;;;-1.65;100.00;101089.28;5059107;28;46021;-68
2024/01/16 08:23:58;;;;;;;;;76.00;56.25;;;;;-1.63;100.00;101087.56;5055930;28;45446;-68
2024/01/16 08:26:24;;;;;;;;;72.00;57.25;;;;;-1.53;100.00;101093.69;5056494;28;45193;-67
2024/01/16 08:28:49;;;;;;;;;76.25;56.25;;;;;-1.55;100.00;101087.63;5056866;28;45539;-67
2024/01/16 08:31:18;;;;;;;;;73.25;59.00;;;;;-1.46;100.00;101098.03;5060011;28;45378;-67
2024/01/16 08:33:43;;;;;;;;;74.50;56.75;;;;;-1.35;100.00;101120.63;5060055;28;45387;-70
2024/01/16 08:36:08;;;;;;;;;77.75;61.00;;;;;-1.38;100.00;101098.97;5058843;28;45326;-70
2024/01/16 08:38:33;;;;;;;;;82.00;62.25;;;;;-1.27;100.00;101108.53;5060358;28;45445;-70
2024/01/16 08:40:59;;;;;;;;;77.00;59.75;;;;;-1.23;100.00;101122.41;5056164;28;45639;-70
2024/01/16 08:43:24;;;;;;;;;78.50;59.50;;;;;-1.22;100.00;101100.78;5059990;28;46478;-70
2024/01/16 08:45:50;;;;;;;;;71.75;57.00;;;;;-1.18;100.00;101098.22;5073798;28;45320;-70
2024/01/16 08:48:16;;;;;;;;;76.00;60.25;;;;;-1.14;100.00;101094.78;5051363;28;45454;-70
2024/01/16 08:50:42;;;;;;;;;71.75;59.50;;;;;-1.14;100.00;101094.78;5043644;28;45489;-70
2024/01/16 08:53:07;;;;;;;;;74.25;57.50;;;;;-1.13;100.00;101095.66;5052547;28;45332;-70
2024/01/16 08:55:32;;;;;;;;;70.50;57.00;;;;;-1.17;100.00;101074.00;5055910;28;45292;-69
2024/01/16 08:57:58;;;;;;;;;41.50;29.25;;;;;-1.14;100.00;101084.41;5058174;28;45349;-69
2024/01/16 09:00:23;;;;;;;;;77.25;58.50;;;;;-1.14;100.00;101078.34;5051154;28;45549;-70
2024/01/16 09:02:48;;;;;;;;;72.00;54.75;;;;;-1.18;100.00;101074.84;5057403;28;46140;-69
2024/01/16 09:05:14;;;;;;;;;70.50;57.50;;;;;-1.31;100.00;101064.44;5042933;28;45815;-69
2024/01/16 09:07:40;;;;;;;;;67.50;55.00;;;;;-1.09;100.00;101094.81;5061051;28;45213;-69
2024/01/16 09:10:06;;;;;;;;;73.25;56.00;;;;;-1.15;100.00;101076.63;5037756;28;45360;-70
2024/01/16 09:12:33;;;;;;;;;73.25;57.00;;;;;-1.18;100.00;101069.66;5050685;28;45391;-69
2024/01/16 09:14:58;;;;;;;;;74.00;57.00;;;;;-1.08;100.00;101091.34;5035561;28;45913;-69
2024/01/16 09:17:25;;;;;;;;;74.00;59.75;;;;;-1.01;100.00;101097.44;5059073;28;45417;-69
2024/01/16 09:19:51;;;;;;;;;76.50;57.75;;;;;-1.01;100.00;101100.03;5049691;28;45334;-70
2024/01/16 09:22:16;;;;;;;;;73.75;61.75;;;;;-1.01;100.00;101098.28;5057240;28;45438;-69
2024/01/16 09:24:42;;;;;;;;;78.00;60.00;;;;;-1.33;100.00;101025.50;5060499;28;45317;-69
2024/01/16 09:27:09;;;;;;;;;83.50;63.00;;;;;-0.88;100.00;101087.09;5060955;28;45331;-69
2024/01/16 09:29:35;;;;;;;;;3.00;2.50;;;;;-0.90;100.00;101065.47;5035767;28;45384;-69
2024/01/16 09:32:00;;;;;;;;;82.50;63.25;;;;;-0.97;100.00;101045.53;5035767;28;46915;-69
2024/01/16 09:34:25;;;;;;;;;70.00;58.75;;;;;-0.78;100.00;101067.22;5059874;28;45390;-69
2024/01/16 09:36:51;;;;;;;;;75.25;59.50;;;;;-0.86;100.00;101043.84;5062754;28;45556;-69
2024/01/16 09:39:16;;;;;;;;;82.50;60.25;;;;;-0.63;100.00;101068.16;5054516;28;45450;-69
2024/01/16 09:41:42;;;;;;;;;74.00;59.25;;;;;-1.01;100.00;100997.06;5057323;28;46408;-69
2024/01/16 09:44:08;;;;;;;;;84.75;66.50;;;;;-0.61;100.00;101047.34;5049664;28;45408;-68
2024/01/16 09:46:36;;;;;;;;;86.00;66.75;;;;;-0.46;100.00;101054.34;5038772;28;45315;-69
2024/01/16 09:49:04;;;;;;;;;79.50;62.25;;;;;-0.40;100.00;101056.94;5051025;28;45350;-69
2024/01/16 09:51:29;;;;;;;;;78.75;62.25;;;;;-0.36;100.00;101056.06;5066094;28;46416;-68
2024/01/16 09:53:55;;;;;;;;;86.75;68.50;;;;;-0.31;100.00;101057.81;5046279;28;45562;-69
2024/01/16 09:56:24;;;;;;;;;75.50;55.25;;;;;-0.25;100.00;101059.53;5053530;28;45351;-68
2024/01/16 09:58:54;;;;;;;;;80.00;64.25;;;;;-0.22;100.00;101060.41;5052517;28;45471;-68
2024/01/16 10:01:21;;;;;;;;;81.25;64.50;;;;;-0.14;100.00;101063.88;5066273;28;46416;-68
2024/01/16 10:03:47;;;;;;;;;84.50;66.50;;;;;-0.13;100.00;101055.19;5058328;28;45237;-69
2024/01/16 10:06:17;;;;;;;;;88.25;67.00;;;;;-0.09;100.00;101054.34;5056189;28;45500;-68
2024/01/16 10:08:44;;;;;;;;;85.50;63.75;;;;;0.02;100.00;101053.47;5059639;28;45437;-68
2024/01/16 10:11:09;;;;;;;;;84.75;67.00;;;;;-0.03;100.00;101038.75;5059533;28;45251;-68
2024/01/16 10:13:36;;;;;;;;;89.75;67.25;;;;;0.09;100.00;101056.09;5059258;28;45344;-68
2024/01/16 10:16:01;;;;;;;;;84.50;65.25;;;;;0.09;100.00;101048.28;5049810;28;45319;-68
2024/01/16 10:18:33;;;;;;;;;84.50;67.50;;;;;0.16;100.00;101043.94;5055783;28;45377;-68
2024/01/16 10:20:59;;;;;;;;;81.75;63.25;;;;;0.28;100.00;101055.19;5052933;28;46095;-68
2024/01/16 10:23:36;;;;;;;;;95.00;69.00;;;;;0.33;100.00;101056.03;5027515;28;45205;-68
2024/01/16 10:26:12;;;;;;;;;87.00;66.00;;;;;0.39;100.00;101056.03;5057874;28;45280;-68
2024/01/16 10:28:40;;;;;;;;;83.75;65.25;;;;;0.48;100.00;101044.75;5062916;28;45630;-68
2024/01/16 10:31:06;;;;;;;;;93.00;68.25;;;;;0.52;100.00;101043.88;5056389;28;46383;-68
2024/01/16 10:33:32;;;;;;;;;75.25;63.25;;;;;0.56;100.00;101039.53;5055964;28;45457;-68
2024/01/16 10:36:16;;;;;;;;;84.25;65.75;;;;;0.44;100.00;101001.41;5056712;28;45236;-68
2024/01/16 10:38:45;;;;;;;;;86.50;68.25;;;;;0.66;100.00;101042.09;5059136;28;45557;-68
2024/01/16 10:41:16;;;;;;;;;84.00;66.75;;;;;0.73;100.00;101033.38;5052270;28;46141;-68
2024/01/16 10:43:44;;;;;;;;;89.75;69.75;;;;;0.77;100.00;101031.63;5052561;28;45244;-68
2024/01/16 10:46:14;;;;;;;;;83.00;65.50;;;;;0.85;100.00;101030.72;5052351;28;45284;-68
2024/01/16 10:48:44;;;;;;;;;86.50;64.00;;;;;0.83;100.00;101019.47;5055058;28;45319;-68
2024/01/16 10:51:16;;;;;;;;;90.50;69.25;;;;;0.94;100.00;101022.03;5057895;28;45810;-68
2024/01/16 10:53:43;;;;;;;;;92.75;71.75;;;;;1.04;100.00;101023.72;5052759;28;45331;-68
2024/01/16 10:56:13;;;;;;;;;85.00;66.25;;;;;1.12;100.00;101029.75;5052240;28;45338;-68